Time;durP1;ratioP1;P1;durP2;ratioP2;P2;SDS_P1;SDS_P2;PMS_P1;PMS_P2;Temp;Humidity;BMP_temperature;BMP_pressure;BME280_temperature;BME280_humidity;BME280_pressure;Samples;Min_cycle;Max_cycle;Signal;HPM_P1;HPM_P2
2022/03/13 20:24:49;;;;;;;;;;;;;;;19.24;44.49;101331.88;5080185;27;2011161;-85
2022/03/13 20:27:14;;;;;;;;;;;;;;;19.36;44.95;101336.97;5131214;27;19927;-89
2022/03/13 20:29:40;;;;;;;;;;;;;;;19.51;45.13;101341.50;5127619;27;19974;-91
2022/03/13 20:32:05;;;;;;;;;;;;;;;19.67;45.05;101343.00;5107806;27;20298;-85
2022/03/13 20:34:33;;;;;;;;;;;;;;;19.84;44.93;101347.25;5130318;27;19942;-88
2022/03/13 20:36:58;;;;;;;;;;;;;;;20.00;44.78;101356.94;5126788;27;19965;-89
2022/03/13 20:39:24;;;;;;;;;;;;;;;20.14;44.76;101357.06;5130175;27;19919;-87
2022/03/13 20:41:50;;;;;;;;;;;;;;;20.25;44.53;101358.56;5121124;27;19935;-89
2022/03/13 20:44:16;;;;;;;;;;;;;;;20.38;44.30;101370.75;5115346;27;19953;-89
2022/03/13 20:46:42;;;;;;;;;;;;;;;20.48;44.19;101369.81;5128639;27;19920;-88
2022/03/13 20:49:08;;;;;;;;;;;;;;;20.57;44.12;101379.06;5132695;27;19927;-89
2022/03/13 20:51:33;;;;;;;;;;;;;;;20.64;43.90;101382.25;5119340;28;19933;-88
2022/03/13 20:53:59;;;;;;;;;;;;;;;20.72;44.05;101384.34;5123665;27;19938;-88
2022/03/13 20:56:24;;;;;;;;;;;;;;;20.79;43.77;101391.38;5134463;27;20379;-89
2022/03/13 20:58:50;;;;;;;;;;;;;;;20.85;43.75;101392.97;5114641;27;20010;-90
2022/03/13 21:01:15;;;;;;;;;;;;;;;20.90;43.84;101390.94;5120996;27;20066;-86
2022/03/13 21:03:41;;;;;;;;;;;;;;;20.97;43.55;101390.59;5096372;27;20039;-88
2022/03/13 21:06:07;;;;;;;;;;;;;;;21.01;43.47;101397.09;5125535;27;19934;-88
2022/03/13 21:08:32;;;;;;;;;;;;;;;21.06;43.40;101407.22;5111066;27;20413;-88
2022/03/13 21:10:57;;;;;;;;;;;;;;;21.09;43.29;101401.97;5131427;27;19959;-88
2022/03/13 21:13:24;;;;;;;;;;;;;;;21.13;43.36;101396.66;5109269;27;20379;-87
2022/03/13 21:15:50;;;;;;;;;;;;;;;21.15;43.13;101398.00;5128552;27;19935;-88
2022/03/13 21:18:15;;;;;;;;;;;;;;;21.19;43.17;101398.22;5133179;27;20042;-88
2022/03/13 21:20:40;;;;;;;;;;;;;;;21.22;43.20;101403.13;5116962;27;19923;-88
2022/03/13 21:23:05;;;;;;;;;;;;;;;21.25;43.15;101407.22;5109767;27;20232;-88
2022/03/13 21:25:31;;;;;;;;;;;;;;;21.26;42.90;101401.41;5121751;27;20007;-89
2022/03/13 21:27:56;;;;;;;;;;;;;;;21.29;42.92;101402.72;5110746;28;19938;-86
2022/03/13 21:30:22;;;;;;;;;;;;;;;21.32;42.66;101410.41;5131821;27;19920;-88
2022/03/13 21:32:48;;;;;;;;;;;;;;;21.33;42.61;101414.78;5109503;27;20388;-88
2022/03/13 21:35:14;;;;;;;;;;;;;;;21.35;42.54;101416.09;5114554;27;19938;-87
2022/03/13 21:37:40;;;;;;;;;;;;;;;21.37;42.65;101421.31;5113383;27;19998;-88
2022/03/13 21:40:06;;;;;;;;;;;;;;;21.38;42.60;101403.69;5111576;27;19940;-87
2022/03/13 21:42:31;;;;;;;;;;;;;;;21.41;42.68;101402.31;5118650;27;19927;-88
2022/03/13 21:44:56;;;;;;;;;;;;;;;21.41;42.54;101408.63;5110205;27;19967;-88
2022/03/13 21:47:23;;;;;;;;;;;;;;;21.44;42.47;101419.00;5086417;27;20043;-88
2022/03/13 21:49:49;;;;;;;;;;;;;;;21.45;42.52;101425.34;5112610;27;19938;-88
2022/03/13 21:52:14;;;;;;;;;;;;;;;21.47;42.41;101420.34;5111553;27;20454;-88
2022/03/13 21:54:41;;;;;;;;;;;;;;;21.47;42.17;101423.94;5125293;27;19920;-87
2022/03/13 21:57:09;;;;;;;;;;;;;;;21.48;42.41;101425.56;5122261;27;19919;-88
2022/03/13 21:59:34;;;;;;;;;;;;;;;21.50;42.33;101417.03;5122877;27;19974;-88
2022/03/13 22:01:59;;;;;;;;;;;;;;;21.51;42.17;101422.19;5094929;28;20385;-85
2022/03/13 22:04:25;;;;;;;;;;;;;;;21.52;42.04;101414.75;5110183;27;20274;-89
2022/03/13 22:06:50;;;;;;;;;;;;;;;21.52;41.92;101417.50;5107778;27;20337;-88
2022/03/13 22:09:16;;;;;;;;;;;;;;;21.53;42.15;101422.72;5090877;28;19932;-87
2022/03/13 22:11:44;;;;;;;;;;;;;;;21.55;41.99;101425.19;5089814;28;20303;-87
2022/03/13 22:14:10;;;;;;;;;;;;;;;21.55;42.20;101428.75;5109359;27;19956;-86
2022/03/13 22:16:35;;;;;;;;;;;;;;;21.56;41.91;101430.34;5101717;27;20392;-88
2022/03/13 22:19:01;;;;;;;;;;;;;;;21.56;41.88;101427.59;5109690;27;19961;-85
2022/03/13 22:21:27;;;;;;;;;;;;;;;21.57;41.75;101429.25;5108682;27;19986;-83
2022/03/13 22:23:52;;;;;;;;;;;;;;;21.58;41.95;101430.06;5108744;27;19919;-83
2022/03/13 22:26:18;;;;;;;;;;;;;;;21.59;41.87;101427.00;5103184;27;19923;-83
2022/03/13 22:28:44;;;;;;;;;;;;;;;21.59;41.70;101435.25;5113441;27;19979;-86
2022/03/13 22:31:09;;;;;;;;;;;;;;;21.59;41.73;101434.44;5095254;28;19949;-87
2022/03/13 22:33:35;;;;;;;;;;;;;;;21.61;41.77;101433.03;5108326;27;19930;-86
2022/03/13 22:36:00;;;;;;;;;;;;;;;21.62;41.46;101444.84;5081029;28;20387;-87
2022/03/13 22:38:26;;;;;;;;;;;;;;;21.63;41.64;101448.41;5093992;27;19920;-87
2022/03/13 22:40:51;;;;;;;;;;;;;;;21.64;41.43;101452.78;5080373;27;19931;-87
2022/03/13 22:43:18;;;;;;;;;;;;;;;21.64;41.76;101447.28;5092818;27;19941;-86
2022/03/13 22:45:44;;;;;;;;;;;;;;;21.64;41.47;101450.03;5094357;28;19931;-86
2022/03/13 22:48:09;;;;;;;;;;;;;;;21.63;41.75;101451.97;5090447;28;20291;-86
2022/03/13 22:53:18;;;;;;;;;;;;;;;21.64;41.36;101467.34;5110964;27;19937;-85
2022/03/13 22:55:44;;;;;;;;;;;;;;;21.65;41.51;101459.94;5096675;27;19931;-87
2022/03/13 22:58:10;;;;;;;;;;;;;;;21.65;41.77;101457.19;5093958;27;19941;-88
2022/03/13 23:01:43;;;;;;;;;;;;;;;21.65;41.32;101458.00;5105400;27;19970;-87
2022/03/13 23:04:10;;;;;;;;;;;;;;;21.66;41.29;101467.88;5105222;28;19920;-86
2022/03/13 23:06:36;;;;;;;;;;;;;;;21.66;41.44;101461.56;5110459;28;20316;-84
2022/03/13 23:09:02;;;;;;;;;;;;;;;21.66;41.57;101469.81;5119223;28;19934;-85
2022/03/13 23:11:29;;;;;;;;;;;;;;;21.67;41.53;101475.03;5106114;28;19941;-85
2022/03/13 23:13:54;;;;;;;;;;;;;;;21.68;41.28;101478.56;5100533;28;19928;-85
2022/03/13 23:16:20;;;;;;;;;;;;;;;21.67;41.30;101483.28;5088023;28;20378;-86
2022/03/13 23:18:46;;;;;;;;;;;;;;;21.68;41.15;101479.38;5115890;27;19924;-85
2022/03/13 23:21:15;;;;;;;;;;;;;;;21.68;41.17;101478.56;5103466;28;20036;-85
2022/03/13 23:23:41;;;;;;;;;;;;;;;21.69;41.41;101477.44;5105745;28;19928;-84
2022/03/13 23:26:09;;;;;;;;;;;;;;;21.68;41.62;101479.38;5104618;28;20479;-83
2022/03/13 23:28:34;;;;;;;;;;;;;;;21.68;41.41;101482.13;5107054;28;20454;-83
2022/03/13 23:31:01;;;;;;;;;;;;;;;21.69;41.35;101474.69;5106716;28;19925;-83
2022/03/13 23:33:33;;;;;;;;;;;;;;;21.68;41.29;101484.88;5106501;28;19938;-83
2022/03/13 23:36:02;;;;;;;;;;;;;;;21.69;41.35;101477.44;5106490;28;19924;-84
2022/03/13 23:38:27;;;;;;;;;;;;;;;21.68;41.12;101482.13;5108993;28;19920;-84
2022/03/13 23:40:54;;;;;;;;;;;;;;;21.68;41.04;101479.38;5104765;28;19954;-84
2022/03/13 23:43:19;;;;;;;;;;;;;;;21.68;41.23;101479.38;5103438;28;20299;-83
2022/03/13 23:45:45;;;;;;;;;;;;;;;21.69;41.32;101480.19;5101672;28;19954;-84
2022/03/13 23:48:11;;;;;;;;;;;;;;;21.68;41.23;101479.38;5106613;28;20291;-84
2022/03/13 23:50:36;;;;;;;;;;;;;;;21.68;41.22;101481.31;5106837;28;19931;-84
2022/03/13 23:53:02;;;;;;;;;;;;;;;21.68;41.05;101481.31;5105785;28;19927;-84
2022/03/13 23:55:27;;;;;;;;;;;;;;;21.67;41.03;101480.53;5105222;28;19968;-84
2022/03/13 23:57:53;;;;;;;;;;;;;;;21.67;41.25;101482.44;5107737;28;20407;-82
